createdAt,value
2023-03-16T00:00:15.170Z,70.71
2023-03-16T00:02:45.678Z,70.62
2023-03-16T00:05:16.064Z,70.69
2023-03-16T00:07:57.245Z,70.77
2023-03-16T00:10:27.944Z,70.92
2023-03-16T00:12:57.555Z,70.93
2023-03-16T00:15:26.698Z,70.79
2023-03-16T00:17:58.178Z,70.99
2023-03-16T00:20:29.357Z,71.21
2023-03-16T00:22:59.108Z,71.57
2023-03-16T00:25:33.685Z,71.50
2023-03-16T00:28:05.691Z,71.58
2023-03-16T00:30:38.552Z,71.61
2023-03-16T00:33:16.243Z,71.70
2023-03-16T00:35:50.976Z,72.03
2023-03-16T00:38:26.879Z,72.30
2023-03-16T00:41:04.168Z,72.24
2023-03-16T00:43:41.383Z,72.16
2023-03-16T00:46:14.451Z,72.14
2023-03-16T00:48:49.032Z,72.09
2023-03-16T00:51:23.101Z,71.99
2023-03-16T00:53:57.644Z,72.05
2023-03-16T00:56:27.819Z,72.09
2023-03-16T00:58:58.869Z,71.97
2023-03-16T01:01:27.646Z,72.14
2023-03-16T01:03:58.152Z,72.10
2023-03-16T01:06:28.544Z,72.06
2023-03-16T01:08:59.655Z,71.58
2023-03-16T01:11:29.571Z,71.32
2023-03-16T01:13:59.781Z,71.14
2023-03-16T01:16:29.141Z,71.18
2023-03-16T01:18:58.101Z,71.23
2023-03-16T01:21:29.037Z,71.30
2023-03-16T01:24:01.648Z,71.42
2023-03-16T01:26:30.508Z,71.41
2023-03-16T01:29:07.034Z,71.35
2023-03-16T01:31:35.589Z,71.32
2023-03-16T01:34:04.298Z,71.44
2023-03-16T01:36:42.028Z,71.55
2023-03-16T01:39:12.461Z,71.56
2023-03-16T01:41:51.503Z,71.50
2023-03-16T01:44:23.015Z,71.57
2023-03-16T01:46:54.376Z,71.73
2023-03-16T01:49:33.083Z,71.90
2023-03-16T01:52:08.800Z,71.69
2023-03-16T01:54:53.668Z,71.75
2023-03-16T01:57:25.943Z,71.77
2023-03-16T02:00:11.318Z,71.85
2023-03-16T02:02:56.188Z,71.91
2023-03-16T02:05:44.467Z,71.92
2023-03-16T02:08:17.840Z,71.94
2023-03-16T02:10:54.686Z,71.90
2023-03-16T02:13:25.488Z,71.82
2023-03-16T02:15:56.707Z,71.90
2023-03-16T02:18:26.851Z,71.91
2023-03-16T02:21:06.256Z,71.87
2023-03-16T02:23:37.229Z,72.12
2023-03-16T02:26:40.611Z,72.18
2023-03-16T02:30:04.584Z,72.04
2023-03-16T02:32:47.692Z,72.03
2023-03-16T02:35:19.332Z,72.02
2023-03-16T02:37:52.790Z,72.02
2023-03-16T02:40:34.657Z,71.89
2023-03-16T02:43:12.561Z,71.81
2023-03-16T02:45:55.652Z,71.77
2023-03-16T02:48:43.000Z,71.69
2023-03-16T02:51:19.449Z,71.82
2023-03-16T02:53:49.402Z,71.70
2023-03-16T03:02:58.617Z,71.46
2023-03-16T03:05:30.303Z,71.76
2023-03-16T03:08:02.889Z,71.86
2023-03-16T03:10:32.645Z,72.06
2023-03-16T03:13:03.350Z,72.04
2023-03-16T03:15:39.258Z,72.12
2023-03-16T03:18:12.249Z,72.10
2023-03-16T03:20:43.609Z,72.23
2023-03-16T03:23:15.424Z,72.29
2023-03-16T03:25:44.716Z,72.08
2023-03-16T03:28:16.618Z,72.03
2023-03-16T03:37:26.600Z,71.89
2023-03-16T03:39:53.903Z,71.92
2023-03-16T03:42:25.552Z,72.07
2023-03-16T03:44:55.408Z,72.05
2023-03-16T03:47:23.900Z,71.92
2023-03-16T03:49:55.477Z,71.90
2023-03-16T03:52:23.679Z,71.90
2023-03-16T03:54:52.605Z,71.99
2023-03-16T03:57:23.252Z,71.85
2023-03-16T03:59:51.728Z,71.93
2023-03-16T04:02:40.291Z,71.93
2023-03-16T04:05:17.468Z,71.99
2023-03-16T04:07:48.031Z,71.92
2023-03-16T04:10:16.059Z,71.77
2023-03-16T04:12:49.750Z,71.65
2023-03-16T04:15:22.606Z,71.78
2023-03-16T04:18:07.576Z,71.83
2023-03-16T04:20:40.511Z,71.80
2023-03-16T04:23:10.502Z,72.00
2023-03-16T04:25:39.012Z,72.23
2023-03-16T04:28:07.854Z,72.27
2023-03-16T04:30:43.978Z,72.30
2023-03-16T04:33:22.460Z,72.45
2023-03-16T04:35:51.689Z,72.48
2023-03-16T04:38:24.637Z,72.45
2023-03-16T04:40:58.711Z,72.31
2023-03-16T04:43:36.369Z,72.34
2023-03-16T04:46:17.967Z,72.42
2023-03-16T04:48:46.324Z,72.45
2023-03-16T04:51:14.874Z,72.61
2023-03-16T04:53:48.772Z,72.59
2023-03-16T04:56:26.586Z,72.54
2023-03-16T04:59:00.463Z,72.33
2023-03-16T05:01:34.052Z,72.53
2023-03-16T05:04:06.200Z,72.30
2023-03-16T05:06:36.433Z,72.49
2023-03-16T05:09:08.121Z,72.18
2023-03-16T05:11:40.025Z,71.98
2023-03-16T05:14:10.819Z,71.83
2023-03-16T05:16:55.422Z,71.70
2023-03-16T05:19:25.866Z,71.78
2023-03-16T05:22:00.615Z,71.98
2023-03-16T05:24:36.633Z,72.07
2023-03-16T05:27:09.611Z,71.95
2023-03-16T05:29:38.726Z,71.81
2023-03-16T05:32:09.633Z,71.76
2023-03-16T05:34:43.726Z,71.88
2023-03-16T05:37:30.736Z,71.82
2023-03-16T05:40:13.824Z,71.84
2023-03-16T05:42:53.823Z,71.50
2023-03-16T05:45:25.150Z,71.47
2023-03-16T05:48:06.939Z,71.61
2023-03-16T05:50:53.044Z,71.88
2023-03-16T05:53:29.880Z,71.93
2023-03-16T05:56:27.912Z,72.04
2023-03-16T05:59:00.398Z,71.93
2023-03-16T06:01:30.856Z,71.82
2023-03-16T06:04:08.746Z,71.82
2023-03-16T06:06:46.897Z,71.98
2023-03-16T06:09:30.180Z,72.07
2023-03-16T06:12:03.720Z,71.97
2023-03-16T06:14:40.077Z,71.92
2023-03-16T06:17:20.078Z,71.87
2023-03-16T06:19:53.578Z,71.91
2023-03-16T06:22:25.641Z,71.75
2023-03-16T06:25:15.793Z,71.58
2023-03-16T06:27:58.771Z,71.25
2023-03-16T06:30:38.006Z,71.07
2023-03-16T06:33:13.806Z,70.97
2023-03-16T06:35:50.978Z,70.54
2023-03-16T06:38:43.640Z,70.20
2023-03-16T06:41:38.796Z,70.07
2023-03-16T06:44:14.303Z,70.13
2023-03-16T06:46:56.438Z,69.97
2023-03-16T06:49:30.903Z,70.19
2023-03-16T06:52:10.329Z,69.89
2023-03-16T06:56:56.027Z,70.56
2023-03-16T06:59:29.192Z,69.92
2023-03-16T07:02:05.097Z,69.68
2023-03-16T07:04:37.284Z,69.51
2023-03-16T07:07:06.348Z,69.44
2023-03-16T07:09:41.546Z,69.30
2023-03-16T07:12:13.442Z,69.11
2023-03-16T07:14:57.574Z,68.92
2023-03-16T07:17:29.378Z,68.78
2023-03-16T07:20:04.968Z,68.43
2023-03-16T07:22:44.189Z,68.21
2023-03-16T07:25:39.505Z,68.17
2023-03-16T07:28:41.225Z,68.38
2023-03-16T07:31:12.425Z,68.23
2023-03-16T07:33:50.156Z,68.28
2023-03-16T07:36:54.084Z,68.35
2023-03-16T07:39:28.698Z,68.17
2023-03-16T07:42:06.381Z,67.94
2023-03-16T07:44:57.669Z,67.55
2023-03-16T07:47:38.378Z,67.47
2023-03-16T07:50:41.586Z,66.98
2023-03-16T07:53:19.155Z,66.80
2023-03-16T07:55:57.297Z,66.87
2023-03-16T07:58:28.504Z,66.47
2023-03-16T08:01:01.298Z,66.53
2023-03-16T08:03:34.396Z,66.31
2023-03-16T08:06:10.236Z,66.62
2023-03-16T08:08:46.577Z,66.40
2023-03-16T08:11:29.218Z,66.19
2023-03-16T08:14:00.389Z,66.03
2023-03-16T08:16:47.245Z,65.67
2023-03-16T08:19:22.853Z,65.72
2023-03-16T08:22:01.204Z,65.40
2023-03-16T08:26:49.942Z,65.27
2023-03-16T08:29:19.868Z,63.92
2023-03-16T08:31:50.729Z,63.47
2023-03-16T08:34:31.932Z,63.69
2023-03-16T08:37:04.393Z,64.07
2023-03-16T08:39:35.810Z,64.03
2023-03-16T08:42:09.194Z,63.96
2023-03-16T08:44:44.340Z,63.90
2023-03-16T08:47:16.804Z,64.27
2023-03-16T08:49:46.076Z,64.51
2023-03-16T08:52:18.908Z,64.62
2023-03-16T08:55:02.007Z,64.74
2023-03-16T08:57:34.491Z,64.61
2023-03-16T09:00:12.859Z,64.50
2023-03-16T09:02:46.831Z,64.01
2023-03-16T09:05:19.968Z,64.22
2023-03-16T09:07:49.146Z,63.94
2023-03-16T09:10:24.345Z,63.77
2023-03-16T09:12:57.693Z,62.96
2023-03-16T09:15:30.131Z,62.93
2023-03-16T09:18:04.326Z,62.80
2023-03-16T09:20:35.010Z,62.67
2023-03-16T09:23:08.904Z,62.37
2023-03-16T09:25:38.528Z,62.49
2023-03-16T09:28:13.035Z,62.97
2023-03-16T09:30:44.944Z,63.19
2023-03-16T09:33:14.835Z,63.30
2023-03-16T09:35:52.492Z,63.00
2023-03-16T09:38:23.202Z,63.06
2023-03-16T09:40:59.096Z,62.64
2023-03-16T09:43:37.082Z,62.04
2023-03-16T09:46:18.246Z,62.30
2023-03-16T09:48:51.081Z,62.29
2023-03-16T09:51:52.612Z,62.59
2023-03-16T09:54:29.219Z,62.67
2023-03-16T09:57:00.013Z,62.58
2023-03-16T09:59:34.167Z,62.49
2023-03-16T10:02:34.910Z,62.42
2023-03-16T10:05:16.101Z,62.88
2023-03-16T10:07:59.196Z,62.39
2023-03-16T10:10:50.118Z,62.51
2023-03-16T10:13:48.228Z,62.20
2023-03-16T10:16:52.833Z,62.14
2023-03-16T10:19:32.652Z,61.76
2023-03-16T10:22:08.616Z,61.72
2023-03-16T10:25:30.158Z,61.20
2023-03-16T10:28:06.682Z,61.15
2023-03-16T10:30:37.483Z,61.61
2023-03-16T10:33:24.693Z,61.66
2023-03-16T10:36:15.804Z,61.34
2023-03-16T10:38:55.461Z,60.86
2023-03-16T10:41:39.005Z,60.96
2023-03-16T10:44:30.137Z,61.42
2023-03-16T10:47:05.993Z,61.36
2023-03-16T10:49:44.833Z,61.58
2023-03-16T10:52:40.186Z,61.64
2023-03-16T10:55:32.867Z,61.44
2023-03-16T10:58:07.022Z,61.72
2023-03-16T11:00:37.636Z,61.86
2023-03-16T11:03:27.653Z,62.12
2023-03-16T11:06:02.490Z,62.41
2023-03-16T11:08:36.135Z,62.20
2023-03-16T11:11:10.103Z,62.38
2023-03-16T11:13:46.033Z,62.59
2023-03-16T11:16:37.289Z,62.80
2023-03-16T11:19:26.078Z,62.95
2023-03-16T11:22:20.484Z,62.92
2023-03-16T11:25:15.985Z,62.90
2023-03-16T11:28:13.119Z,62.90
2023-03-16T11:31:18.409Z,62.71
2023-03-16T11:33:49.378Z,62.16
2023-03-16T11:36:56.946Z,62.16
2023-03-16T11:39:40.908Z,61.93
2023-03-16T11:42:39.554Z,62.21
2023-03-16T11:45:37.944Z,62.23
2023-03-16T11:48:38.257Z,62.28
2023-03-16T11:51:28.805Z,62.41
2023-03-16T11:54:07.894Z,62.47
2023-03-16T11:56:38.813Z,62.69
2023-03-16T11:59:26.638Z,62.90
2023-03-16T12:02:07.522Z,62.72
2023-03-16T12:04:45.346Z,62.76
2023-03-16T12:07:29.302Z,63.16
2023-03-16T12:10:20.404Z,63.39
2023-03-16T12:13:18.293Z,63.86
2023-03-16T12:15:51.717Z,64.43
2023-03-16T12:18:38.744Z,64.24
2023-03-16T12:21:36.225Z,64.33
2023-03-16T12:24:11.224Z,64.25
2023-03-16T12:26:42.829Z,64.35
2023-03-16T12:29:37.008Z,64.52
2023-03-16T12:32:34.923Z,65.00
2023-03-16T12:35:22.573Z,65.07
2023-03-16T12:38:23.625Z,65.12
2023-03-16T12:41:29.781Z,64.96
2023-03-16T12:44:06.369Z,65.41
2023-03-16T12:47:14.909Z,65.41
2023-03-16T12:49:47.730Z,65.71
2023-03-16T12:52:17.305Z,65.88
2023-03-16T12:54:52.237Z,66.26
2023-03-16T12:57:38.614Z,66.18
2023-03-16T13:00:10.963Z,66.02
2023-03-16T13:02:48.892Z,66.12
2023-03-16T13:05:32.259Z,66.10
2023-03-16T13:08:10.834Z,65.90
2023-03-16T13:10:40.894Z,65.68
2023-03-16T13:13:15.285Z,65.78
2023-03-16T13:15:47.565Z,65.74
2023-03-16T13:18:22.481Z,65.30
2023-03-16T13:20:55.317Z,65.60
2023-03-16T13:23:30.377Z,65.87
2023-03-16T13:26:06.005Z,65.90
2023-03-16T13:28:37.829Z,65.93
2023-03-16T13:31:20.514Z,66.08
2023-03-16T13:33:49.604Z,66.33
2023-03-16T13:36:28.281Z,66.40
2023-03-16T13:39:19.175Z,66.52
2023-03-16T13:42:18.030Z,66.99
2023-03-16T13:44:56.814Z,67.12
2023-03-16T13:47:28.411Z,67.42
2023-03-16T13:50:00.222Z,67.50
2023-03-16T13:52:34.929Z,67.73
2023-03-16T13:55:20.091Z,68.03
2023-03-16T13:57:49.929Z,68.01
2023-03-16T14:00:25.800Z,67.68
2023-03-16T14:02:59.004Z,67.88
2023-03-16T14:05:36.461Z,67.75
2023-03-16T14:08:18.797Z,67.52
2023-03-16T14:10:48.576Z,67.77
2023-03-16T14:13:34.299Z,67.90
2023-03-16T14:16:18.016Z,68.11
2023-03-16T14:19:02.323Z,68.44
2023-03-16T14:21:34.426Z,68.16
2023-03-16T14:24:06.761Z,68.35
2023-03-16T14:26:47.352Z,68.42
2023-03-16T14:29:33.735Z,68.60
2023-03-16T14:32:02.283Z,68.68
2023-03-16T14:34:44.836Z,69.12
2023-03-16T14:37:16.530Z,69.36
2023-03-16T14:40:07.588Z,69.42
2023-03-16T14:42:38.589Z,69.37
2023-03-16T14:45:14.211Z,69.34
2023-03-16T14:47:50.275Z,69.51
2023-03-16T14:50:25.397Z,69.44
2023-03-16T14:52:56.007Z,69.54
2023-03-16T14:55:26.014Z,69.85
2023-03-16T14:57:59.822Z,69.99
2023-03-16T15:00:37.096Z,70.07
2023-03-16T15:03:13.839Z,70.78
2023-03-16T15:05:50.426Z,70.97
2023-03-16T15:08:32.396Z,71.20
2023-03-16T15:11:06.825Z,71.63
2023-03-16T15:13:42.320Z,71.87
2023-03-16T15:16:14.636Z,72.27
2023-03-16T15:18:45.033Z,72.66
2023-03-16T15:21:17.838Z,72.97
2023-03-16T15:23:47.438Z,73.39
2023-03-16T15:26:18.479Z,73.63
2023-03-16T15:28:47.148Z,73.62
2023-03-16T15:31:18.702Z,73.92
2023-03-16T15:33:47.201Z,74.06
2023-03-16T15:36:18.639Z,74.23
2023-03-16T15:38:49.031Z,74.28
2023-03-16T15:41:23.679Z,74.61
2023-03-16T15:44:01.132Z,75.07
2023-03-16T15:46:30.282Z,75.60
2023-03-16T15:49:02.698Z,75.97
2023-03-16T15:51:37.042Z,76.20
2023-03-16T15:54:09.691Z,76.46
2023-03-16T15:56:52.831Z,76.65
2023-03-16T15:59:38.030Z,76.82
2023-03-16T16:02:39.353Z,77.19
2023-03-16T16:05:14.730Z,77.34
2023-03-16T16:07:46.336Z,77.62
2023-03-16T16:10:16.258Z,77.98
2023-03-16T16:12:51.557Z,78.07
2023-03-16T16:15:23.206Z,78.22
2023-03-16T16:18:19.346Z,78.41
2023-03-16T16:20:48.494Z,78.82
2023-03-16T16:23:20.750Z,78.79
2023-03-16T16:25:51.541Z,78.88
2023-03-16T16:28:27.293Z,79.23
2023-03-16T16:30:58.191Z,79.42
2023-03-16T16:33:31.277Z,79.86
2023-03-16T16:36:04.216Z,80.11
2023-03-16T16:38:34.994Z,80.63
2023-03-16T16:41:09.558Z,82.86
2023-03-16T16:44:15.914Z,84.13
2023-03-16T16:46:51.572Z,84.50
2023-03-16T16:49:22.817Z,84.16
2023-03-16T16:51:55.687Z,83.77
2023-03-16T16:54:25.688Z,83.62
2023-03-16T16:56:55.293Z,83.47
2023-03-16T16:59:26.479Z,83.54
2023-03-16T17:01:54.922Z,83.77
2023-03-16T17:04:27.545Z,83.71
2023-03-16T17:07:01.808Z,84.25
2023-03-16T17:09:40.630Z,84.14
2023-03-16T17:12:17.658Z,84.23
2023-03-16T17:14:46.396Z,84.11
2023-03-16T17:17:19.105Z,84.18
2023-03-16T17:19:52.018Z,84.28
2023-03-16T17:22:23.180Z,84.38
2023-03-16T17:24:54.081Z,84.59
2023-03-16T17:27:33.105Z,84.60
2023-03-16T17:30:04.429Z,85.01
2023-03-16T17:32:40.684Z,85.28
2023-03-16T17:35:15.628Z,85.50
2023-03-16T17:37:48.060Z,86.00
2023-03-16T17:40:22.757Z,86.60
2023-03-16T17:42:53.869Z,87.91
2023-03-16T17:45:27.961Z,88.13
2023-03-16T17:47:56.442Z,88.12
2023-03-16T17:50:29.119Z,89.74
2023-03-16T17:52:58.204Z,89.90
2023-03-16T17:55:28.970Z,90.22
2023-03-16T17:58:00.721Z,90.27
2023-03-16T18:00:36.301Z,90.06
2023-03-16T18:03:15.084Z,91.42
2023-03-16T18:05:47.831Z,92.68
2023-03-16T18:08:26.850Z,92.27
2023-03-16T18:11:03.881Z,92.44
2023-03-16T18:13:38.758Z,92.56
2023-03-16T18:16:13.668Z,92.46
2023-03-16T18:18:44.306Z,92.57
2023-03-16T18:21:26.291Z,92.93
2023-03-16T18:23:56.533Z,93.15
2023-03-16T18:26:35.006Z,93.81
2023-03-16T18:29:05.845Z,95.00
2023-03-16T18:31:36.208Z,96.13
2023-03-16T18:34:11.895Z,95.89
2023-03-16T18:36:49.680Z,95.61
2023-03-16T18:39:21.437Z,97.23
2023-03-16T18:41:55.635Z,97.14
2023-03-16T18:44:27.205Z,96.68
2023-03-16T18:46:59.298Z,95.66
2023-03-16T18:49:34.365Z,97.05
2023-03-16T18:52:04.051Z,95.99
2023-03-16T18:54:35.613Z,95.22
2023-03-16T18:57:24.094Z,94.72
2023-03-16T18:59:55.606Z,94.57
2023-03-16T19:02:39.166Z,94.37
2023-03-16T19:05:14.477Z,94.31
2023-03-16T19:07:44.973Z,93.87
2023-03-16T19:10:33.901Z,93.68
2023-03-16T19:14:44.959Z,94.45
2023-03-16T19:17:24.804Z,93.75
2023-03-16T19:19:57.844Z,94.01
2023-03-16T19:22:33.736Z,93.84
2023-03-16T19:25:06.046Z,93.85
2023-03-16T19:27:46.331Z,93.42
2023-03-16T19:30:28.589Z,93.27
2023-03-16T19:39:46.736Z,92.63
2023-03-16T19:42:37.556Z,92.67
2023-03-16T19:45:06.702Z,91.94
2023-03-16T19:47:38.726Z,91.30
2023-03-16T19:50:22.513Z,91.22
2023-03-16T19:52:58.965Z,91.32
2023-03-16T19:55:32.282Z,91.17
2023-03-16T19:58:06.530Z,90.82
2023-03-16T20:00:37.959Z,91.08
2023-03-16T20:03:09.491Z,92.24
2023-03-16T20:05:42.511Z,92.89
2023-03-16T20:08:25.766Z,93.24
2023-03-16T20:11:44.751Z,92.62
2023-03-16T20:14:37.566Z,91.93
2023-03-16T20:17:11.408Z,92.25
2023-03-16T20:19:50.507Z,92.85
2023-03-16T20:22:24.329Z,93.50
2023-03-16T20:24:53.969Z,94.04
2023-03-16T20:27:32.842Z,94.18
2023-03-16T20:30:03.412Z,93.97
2023-03-16T20:32:42.857Z,93.71
2023-03-16T20:35:26.921Z,93.82
2023-03-16T20:37:56.487Z,93.51
2023-03-16T20:40:24.347Z,93.20
2023-03-16T20:42:56.900Z,93.06
2023-03-16T20:45:32.931Z,94.08
2023-03-16T20:48:05.929Z,94.81
2023-03-16T20:50:40.618Z,96.16
2023-03-16T20:53:10.709Z,97.84
2023-03-16T20:55:41.941Z,98.84
2023-03-16T20:58:24.958Z,100.00
2023-03-16T21:01:01.586Z,100.00
2023-03-16T21:03:34.999Z,100.00
2023-03-16T21:06:15.149Z,99.78
2023-03-16T21:08:48.644Z,99.32
2023-03-16T21:11:26.004Z,98.75
2023-03-16T21:14:04.603Z,98.50
2023-03-16T21:16:44.172Z,98.80
2023-03-16T21:19:25.882Z,98.96
2023-03-16T21:21:55.734Z,98.25
2023-03-16T21:24:36.706Z,97.42
2023-03-16T21:27:06.530Z,97.40
2023-03-16T21:29:40.452Z,97.06
2023-03-16T21:32:18.639Z,97.16
2023-03-16T21:34:50.747Z,98.05
2023-03-16T21:37:30.605Z,97.65
2023-03-16T21:40:25.911Z,97.04
2023-03-16T21:42:56.696Z,97.02
2023-03-16T21:45:32.880Z,97.34
2023-03-16T21:48:15.177Z,97.23
2023-03-16T21:50:48.040Z,97.87
2023-03-16T21:53:33.002Z,98.09
2023-03-16T21:56:05.706Z,97.50
2023-03-16T21:58:40.346Z,97.14
2023-03-16T22:01:32.842Z,99.06
2023-03-16T22:04:15.436Z,97.67
2023-03-16T22:07:12.849Z,97.42
2023-03-16T22:09:47.619Z,96.89
2023-03-16T22:12:15.446Z,96.97
2023-03-16T22:14:47.187Z,96.36
2023-03-16T22:17:40.078Z,95.59
2023-03-16T22:20:26.634Z,95.57
2023-03-16T22:23:28.168Z,95.17
2023-03-16T22:25:58.727Z,95.52
2023-03-16T22:28:36.680Z,95.43
2023-03-16T22:31:09.066Z,94.77
2023-03-16T22:33:40.970Z,94.47
2023-03-16T22:36:44.947Z,94.02
2023-03-16T22:39:20.684Z,93.96
2023-03-16T22:41:58.990Z,93.45
2023-03-16T22:44:29.455Z,93.17
2023-03-16T22:47:03.167Z,93.67
2023-03-16T22:49:34.463Z,93.70
2023-03-16T22:52:05.642Z,94.12
2023-03-16T22:54:37.175Z,95.10
2023-03-16T22:57:06.662Z,95.08
2023-03-16T22:59:38.704Z,94.68
2023-03-16T23:02:12.783Z,94.17
2023-03-16T23:04:41.839Z,94.62
2023-03-16T23:07:12.979Z,94.21
2023-03-16T23:09:42.640Z,93.55
2023-03-16T23:12:19.207Z,93.49
2023-03-16T23:14:50.860Z,93.34
2023-03-16T23:17:32.566Z,94.01
2023-03-16T23:20:29.818Z,92.95
2023-03-16T23:23:00.423Z,92.97
2023-03-16T23:25:30.343Z,93.05
2023-03-16T23:28:02.767Z,93.06
2023-03-16T23:30:31.293Z,94.28
2023-03-16T23:33:00.159Z,93.32
2023-03-16T23:35:30.527Z,93.48
2023-03-16T23:38:08.040Z,93.48
2023-03-16T23:40:41.942Z,93.28
2023-03-16T23:43:10.910Z,93.14
2023-03-16T23:45:46.042Z,92.87
2023-03-16T23:48:20.117Z,92.71
2023-03-16T23:50:48.806Z,92.09
2023-03-16T23:53:18.209Z,91.76
2023-03-16T23:55:57.471Z,92.15
2023-03-16T23:58:27.115Z,92.13
